sensor_id;sensor_type;location;lat;lon;timestamp;P1;durP1;ratioP1;P2;durP2;ratioP2
19664;SDS011;9980;51.020;7.772;2022-12-07T00:01:40;14.33;;;12.03;;
19664;SDS011;9980;51.020;7.772;2022-12-07T00:04:10;13.87;;;11.30;;
19664;SDS011;9980;51.020;7.772;2022-12-07T00:06:40;16.63;;;12.27;;
19664;SDS011;9980;51.020;7.772;2022-12-07T00:09:11;15.03;;;12.63;;
19664;SDS011;9980;51.020;7.772;2022-12-07T00:11:42;14.40;;;11.50;;
19664;SDS011;9980;51.020;7.772;2022-12-07T00:14:11;19.43;;;13.63;;
19664;SDS011;9980;51.020;7.772;2022-12-07T00:16:40;16.73;;;13.40;;
19664;SDS011;9980;51.020;7.772;2022-12-07T00:19:07;25.43;;;12.60;;
19664;SDS011;9980;51.020;7.772;2022-12-07T00:21:35;27.33;;;13.97;;
19664;SDS011;9980;51.020;7.772;2022-12-07T00:24:03;20.50;;;13.90;;
19664;SDS011;9980;51.020;7.772;2022-12-07T00:26:32;15.73;;;12.97;;
19664;SDS011;9980;51.020;7.772;2022-12-07T00:29:12;26.20;;;15.57;;
19664;SDS011;9980;51.020;7.772;2022-12-07T00:31:46;16.93;;;12.97;;
19664;SDS011;9980;51.020;7.772;2022-12-07T00:34:19;19.80;;;13.73;;
19664;SDS011;9980;51.020;7.772;2022-12-07T00:36:47;17.93;;;13.77;;
19664;SDS011;9980;51.020;7.772;2022-12-07T00:39:14;17.33;;;13.63;;
19664;SDS011;9980;51.020;7.772;2022-12-07T00:41:41;15.40;;;13.33;;
19664;SDS011;9980;51.020;7.772;2022-12-07T00:44:07;15.57;;;11.93;;
19664;SDS011;9980;51.020;7.772;2022-12-07T00:46:33;15.20;;;12.53;;
19664;SDS011;9980;51.020;7.772;2022-12-07T00:49:00;15.17;;;11.87;;
19664;SDS011;9980;51.020;7.772;2022-12-07T00:51:26;15.47;;;12.67;;
19664;SDS011;9980;51.020;7.772;2022-12-07T00:53:52;12.50;;;11.13;;
19664;SDS011;9980;51.020;7.772;2022-12-07T00:56:20;17.50;;;13.93;;
19664;SDS011;9980;51.020;7.772;2022-12-07T00:58:53;17.43;;;13.80;;
19664;SDS011;9980;51.020;7.772;2022-12-07T01:01:22;16.53;;;13.60;;
19664;SDS011;9980;51.020;7.772;2022-12-07T01:03:51;16.97;;;14.27;;
19664;SDS011;9980;51.020;7.772;2022-12-07T01:06:18;21.93;;;15.33;;
19664;SDS011;9980;51.020;7.772;2022-12-07T01:08:46;23.03;;;14.83;;
19664;SDS011;9980;51.020;7.772;2022-12-07T01:11:14;24.80;;;15.87;;
19664;SDS011;9980;51.020;7.772;2022-12-07T01:13:44;19.33;;;15.07;;
19664;SDS011;9980;51.020;7.772;2022-12-07T01:16:12;22.07;;;15.03;;
19664;SDS011;9980;51.020;7.772;2022-12-07T01:18:40;21.20;;;15.13;;
19664;SDS011;9980;51.020;7.772;2022-12-07T01:21:11;60.07;;;18.30;;
19664;SDS011;9980;51.020;7.772;2022-12-07T01:23:41;30.43;;;17.07;;
19664;SDS011;9980;51.020;7.772;2022-12-07T01:26:12;56.00;;;18.73;;
19664;SDS011;9980;51.020;7.772;2022-12-07T01:28:42;24.97;;;16.20;;
19664;SDS011;9980;51.020;7.772;2022-12-07T01:31:16;30.70;;;16.00;;
19664;SDS011;9980;51.020;7.772;2022-12-07T01:33:47;47.93;;;17.87;;
19664;SDS011;9980;51.020;7.772;2022-12-07T01:36:18;34.40;;;16.30;;
19664;SDS011;9980;51.020;7.772;2022-12-07T01:38:54;33.53;;;15.83;;
19664;SDS011;9980;51.020;7.772;2022-12-07T01:41:23;35.50;;;12.83;;
19664;SDS011;9980;51.020;7.772;2022-12-07T01:49:19;51.33;;;16.93;;
19664;SDS011;9980;51.020;7.772;2022-12-07T01:52:19;23.40;;;16.07;;
19664;SDS011;9980;51.020;7.772;2022-12-07T01:54:54;27.23;;;15.47;;
19664;SDS011;9980;51.020;7.772;2022-12-07T01:57:24;22.53;;;14.20;;
19664;SDS011;9980;51.020;7.772;2022-12-07T01:59:51;23.27;;;14.40;;
19664;SDS011;9980;51.020;7.772;2022-12-07T02:02:31;22.00;;;16.87;;
19664;SDS011;9980;51.020;7.772;2022-12-07T02:05:02;21.33;;;16.57;;
19664;SDS011;9980;51.020;7.772;2022-12-07T02:07:32;20.70;;;15.10;;
19664;SDS011;9980;51.020;7.772;2022-12-07T02:10:20;15.70;;;12.87;;
19664;SDS011;9980;51.020;7.772;2022-12-07T02:12:50;15.30;;;12.53;;
19664;SDS011;9980;51.020;7.772;2022-12-07T02:15:25;14.70;;;12.07;;
19664;SDS011;9980;51.020;7.772;2022-12-07T02:30:02;14.77;;;12.70;;
19664;SDS011;9980;51.020;7.772;2022-12-07T02:32:58;15.43;;;13.53;;
19664;SDS011;9980;51.020;7.772;2022-12-07T02:38:16;18.67;;;14.40;;
19664;SDS011;9980;51.020;7.772;2022-12-07T02:41:10;16.10;;;13.10;;
19664;SDS011;9980;51.020;7.772;2022-12-07T02:44:06;20.30;;;14.60;;
19664;SDS011;9980;51.020;7.772;2022-12-07T02:46:39;17.13;;;13.97;;
19664;SDS011;9980;51.020;7.772;2022-12-07T02:49:12;17.53;;;13.93;;
19664;SDS011;9980;51.020;7.772;2022-12-07T02:51:38;20.70;;;14.70;;
19664;SDS011;9980;51.020;7.772;2022-12-07T02:54:12;14.57;;;11.83;;
19664;SDS011;9980;51.020;7.772;2022-12-07T03:07:45;16.97;;;13.63;;
19664;SDS011;9980;51.020;7.772;2022-12-07T03:10:40;16.10;;;13.57;;
19664;SDS011;9980;51.020;7.772;2022-12-07T03:13:32;17.00;;;13.53;;
19664;SDS011;9980;51.020;7.772;2022-12-07T03:18:57;16.67;;;13.27;;
19664;SDS011;9980;51.020;7.772;2022-12-07T03:21:32;19.40;;;14.57;;
19664;SDS011;9980;51.020;7.772;2022-12-07T03:24:07;17.63;;;14.47;;
19664;SDS011;9980;51.020;7.772;2022-12-07T03:26:44;17.23;;;14.13;;
19664;SDS011;9980;51.020;7.772;2022-12-07T03:29:25;17.80;;;13.70;;
19664;SDS011;9980;51.020;7.772;2022-12-07T03:35:03;15.17;;;13.03;;
19664;SDS011;9980;51.020;7.772;2022-12-07T03:37:48;17.87;;;13.60;;
19664;SDS011;9980;51.020;7.772;2022-12-07T03:40:32;15.47;;;12.73;;
19664;SDS011;9980;51.020;7.772;2022-12-07T03:43:12;14.63;;;12.37;;
19664;SDS011;9980;51.020;7.772;2022-12-07T03:45:39;16.07;;;12.50;;
19664;SDS011;9980;51.020;7.772;2022-12-07T03:48:14;17.70;;;12.73;;
19664;SDS011;9980;51.020;7.772;2022-12-07T03:53:59;20.17;;;14.87;;
19664;SDS011;9980;51.020;7.772;2022-12-07T03:56:41;17.83;;;13.70;;
19664;SDS011;9980;51.020;7.772;2022-12-07T03:59:11;18.13;;;14.13;;
19664;SDS011;9980;51.020;7.772;2022-12-07T04:01:42;17.57;;;13.83;;
19664;SDS011;9980;51.020;7.772;2022-12-07T04:04:10;18.13;;;14.07;;
19664;SDS011;9980;51.020;7.772;2022-12-07T04:06:36;22.10;;;14.93;;
19664;SDS011;9980;51.020;7.772;2022-12-07T04:09:02;18.37;;;14.47;;
19664;SDS011;9980;51.020;7.772;2022-12-07T04:11:29;20.67;;;15.40;;
19664;SDS011;9980;51.020;7.772;2022-12-07T04:13:55;19.87;;;15.10;;
19664;SDS011;9980;51.020;7.772;2022-12-07T04:16:39;17.57;;;14.40;;
19664;SDS011;9980;51.020;7.772;2022-12-07T04:19:10;22.27;;;16.07;;
19664;SDS011;9980;51.020;7.772;2022-12-07T04:21:37;19.80;;;14.47;;
19664;SDS011;9980;51.020;7.772;2022-12-07T04:24:03;22.27;;;15.27;;
19664;SDS011;9980;51.020;7.772;2022-12-07T04:26:30;19.13;;;13.77;;
19664;SDS011;9980;51.020;7.772;2022-12-07T04:28:56;17.27;;;13.27;;
19664;SDS011;9980;51.020;7.772;2022-12-07T04:31:23;16.70;;;12.90;;
19664;SDS011;9980;51.020;7.772;2022-12-07T04:33:49;15.07;;;12.03;;
19664;SDS011;9980;51.020;7.772;2022-12-07T04:36:15;19.70;;;13.23;;
19664;SDS011;9980;51.020;7.772;2022-12-07T04:38:41;15.43;;;12.47;;
19664;SDS011;9980;51.020;7.772;2022-12-07T04:41:08;16.63;;;11.60;;
19664;SDS011;9980;51.020;7.772;2022-12-07T04:43:35;13.57;;;10.40;;
19664;SDS011;9980;51.020;7.772;2022-12-07T04:46:01;13.90;;;9.20;;
19664;SDS011;9980;51.020;7.772;2022-12-07T04:48:28;11.97;;;9.70;;
19664;SDS011;9980;51.020;7.772;2022-12-07T04:50:54;15.20;;;12.07;;
19664;SDS011;9980;51.020;7.772;2022-12-07T04:53:20;14.80;;;11.43;;
19664;SDS011;9980;51.020;7.772;2022-12-07T04:55:47;12.03;;;9.87;;
19664;SDS011;9980;51.020;7.772;2022-12-07T04:58:14;13.03;;;10.63;;
19664;SDS011;9980;51.020;7.772;2022-12-07T05:00:40;13.67;;;11.27;;
19664;SDS011;9980;51.020;7.772;2022-12-07T05:03:07;12.37;;;10.30;;
19664;SDS011;9980;51.020;7.772;2022-12-07T05:05:33;16.10;;;12.43;;
19664;SDS011;9980;51.020;7.772;2022-12-07T05:07:59;17.50;;;12.67;;
19664;SDS011;9980;51.020;7.772;2022-12-07T05:10:25;18.57;;;12.70;;
19664;SDS011;9980;51.020;7.772;2022-12-07T05:12:52;17.20;;;13.17;;
19664;SDS011;9980;51.020;7.772;2022-12-07T05:15:18;22.17;;;13.50;;
19664;SDS011;9980;51.020;7.772;2022-12-07T05:17:44;18.87;;;13.07;;
19664;SDS011;9980;51.020;7.772;2022-12-07T05:20:10;19.53;;;14.80;;
19664;SDS011;9980;51.020;7.772;2022-12-07T05:22:37;20.47;;;14.37;;
19664;SDS011;9980;51.020;7.772;2022-12-07T05:25:03;20.20;;;13.63;;
19664;SDS011;9980;51.020;7.772;2022-12-07T05:27:29;24.60;;;14.97;;
19664;SDS011;9980;51.020;7.772;2022-12-07T05:29:56;23.47;;;15.20;;
19664;SDS011;9980;51.020;7.772;2022-12-07T05:32:22;18.70;;;13.77;;
19664;SDS011;9980;51.020;7.772;2022-12-07T05:34:48;19.53;;;14.10;;
19664;SDS011;9980;51.020;7.772;2022-12-07T05:37:14;20.70;;;13.13;;
19664;SDS011;9980;51.020;7.772;2022-12-07T05:39:40;20.80;;;13.93;;
19664;SDS011;9980;51.020;7.772;2022-12-07T05:42:08;26.33;;;16.37;;
19664;SDS011;9980;51.020;7.772;2022-12-07T05:44:39;25.80;;;15.93;;
19664;SDS011;9980;51.020;7.772;2022-12-07T05:47:07;21.33;;;15.20;;
19664;SDS011;9980;51.020;7.772;2022-12-07T05:49:34;21.30;;;14.80;;
19664;SDS011;9980;51.020;7.772;2022-12-07T05:52:00;19.80;;;14.63;;
19664;SDS011;9980;51.020;7.772;2022-12-07T05:54:27;31.70;;;21.37;;
19664;SDS011;9980;51.020;7.772;2022-12-07T05:56:53;24.03;;;16.17;;
19664;SDS011;9980;51.020;7.772;2022-12-07T05:59:20;23.33;;;14.63;;
19664;SDS011;9980;51.020;7.772;2022-12-07T06:04:21;21.13;;;14.70;;
19664;SDS011;9980;51.020;7.772;2022-12-07T06:06:48;19.27;;;13.67;;
19664;SDS011;9980;51.020;7.772;2022-12-07T06:09:15;20.90;;;13.00;;
19664;SDS011;9980;51.020;7.772;2022-12-07T06:11:41;20.00;;;12.97;;
19664;SDS011;9980;51.020;7.772;2022-12-07T06:14:26;18.97;;;13.57;;
19664;SDS011;9980;51.020;7.772;2022-12-07T06:16:54;19.30;;;12.73;;
19664;SDS011;9980;51.020;7.772;2022-12-07T06:19:21;19.07;;;12.97;;
19664;SDS011;9980;51.020;7.772;2022-12-07T06:21:47;17.03;;;12.50;;
19664;SDS011;9980;51.020;7.772;2022-12-07T06:24:14;18.97;;;13.70;;
19664;SDS011;9980;51.020;7.772;2022-12-07T06:26:42;22.87;;;13.93;;
19664;SDS011;9980;51.020;7.772;2022-12-07T06:29:09;18.83;;;11.93;;
19664;SDS011;9980;51.020;7.772;2022-12-07T06:31:37;19.13;;;13.87;;
19664;SDS011;9980;51.020;7.772;2022-12-07T06:34:05;18.50;;;12.60;;
19664;SDS011;9980;51.020;7.772;2022-12-07T06:36:36;20.67;;;14.80;;
19664;SDS011;9980;51.020;7.772;2022-12-07T06:39:03;18.07;;;13.57;;
19664;SDS011;9980;51.020;7.772;2022-12-07T06:41:30;15.97;;;11.80;;
19664;SDS011;9980;51.020;7.772;2022-12-07T06:43:57;18.67;;;12.50;;
19664;SDS011;9980;51.020;7.772;2022-12-07T06:46:24;17.20;;;11.70;;
19664;SDS011;9980;51.020;7.772;2022-12-07T06:48:50;17.70;;;12.73;;
19664;SDS011;9980;51.020;7.772;2022-12-07T06:51:16;18.30;;;12.87;;
19664;SDS011;9980;51.020;7.772;2022-12-07T06:53:43;16.57;;;12.90;;
19664;SDS011;9980;51.020;7.772;2022-12-07T06:56:09;20.87;;;13.90;;
19664;SDS011;9980;51.020;7.772;2022-12-07T06:58:35;20.13;;;12.70;;
19664;SDS011;9980;51.020;7.772;2022-12-07T07:01:02;16.90;;;11.87;;
19664;SDS011;9980;51.020;7.772;2022-12-07T07:03:28;17.33;;;12.13;;
19664;SDS011;9980;51.020;7.772;2022-12-07T07:05:54;21.53;;;14.33;;
19664;SDS011;9980;51.020;7.772;2022-12-07T07:08:21;18.67;;;13.77;;
19664;SDS011;9980;51.020;7.772;2022-12-07T07:10:48;19.67;;;13.83;;
19664;SDS011;9980;51.020;7.772;2022-12-07T07:13:15;17.87;;;12.67;;
19664;SDS011;9980;51.020;7.772;2022-12-07T07:15:41;22.73;;;15.13;;
19664;SDS011;9980;51.020;7.772;2022-12-07T07:18:08;25.03;;;15.87;;
19664;SDS011;9980;51.020;7.772;2022-12-07T07:20:34;38.27;;;21.80;;
19664;SDS011;9980;51.020;7.772;2022-12-07T07:23:00;27.10;;;17.17;;
19664;SDS011;9980;51.020;7.772;2022-12-07T07:25:27;26.67;;;16.83;;
19664;SDS011;9980;51.020;7.772;2022-12-07T07:27:53;27.60;;;15.50;;
19664;SDS011;9980;51.020;7.772;2022-12-07T07:30:19;23.43;;;15.97;;
19664;SDS011;9980;51.020;7.772;2022-12-07T07:32:46;20.57;;;14.67;;
19664;SDS011;9980;51.020;7.772;2022-12-07T07:35:12;29.33;;;15.70;;
19664;SDS011;9980;51.020;7.772;2022-12-07T07:37:39;24.47;;;15.30;;
19664;SDS011;9980;51.020;7.772;2022-12-07T07:40:07;24.27;;;14.87;;
19664;SDS011;9980;51.020;7.772;2022-12-07T07:42:34;19.93;;;14.37;;
19664;SDS011;9980;51.020;7.772;2022-12-07T07:45:01;25.00;;;14.67;;
19664;SDS011;9980;51.020;7.772;2022-12-07T07:47:28;19.33;;;13.87;;
19664;SDS011;9980;51.020;7.772;2022-12-07T07:49:54;25.30;;;15.17;;
19664;SDS011;9980;51.020;7.772;2022-12-07T07:52:20;23.07;;;13.63;;
19664;SDS011;9980;51.020;7.772;2022-12-07T07:54:46;17.80;;;12.93;;
19664;SDS011;9980;51.020;7.772;2022-12-07T07:57:13;21.27;;;14.03;;
19664;SDS011;9980;51.020;7.772;2022-12-07T07:59:39;29.30;;;19.90;;
19664;SDS011;9980;51.020;7.772;2022-12-07T08:02:05;19.43;;;13.60;;
19664;SDS011;9980;51.020;7.772;2022-12-07T08:04:31;21.60;;;16.13;;
19664;SDS011;9980;51.020;7.772;2022-12-07T08:06:58;19.60;;;13.37;;
19664;SDS011;9980;51.020;7.772;2022-12-07T08:09:24;16.00;;;12.30;;
19664;SDS011;9980;51.020;7.772;2022-12-07T08:11:50;20.80;;;12.23;;
19664;SDS011;9980;51.020;7.772;2022-12-07T08:14:16;12.00;;;10.47;;
19664;SDS011;9980;51.020;7.772;2022-12-07T08:16:42;11.97;;;9.90;;
19664;SDS011;9980;51.020;7.772;2022-12-07T08:19:09;12.80;;;9.57;;
19664;SDS011;9980;51.020;7.772;2022-12-07T08:21:35;11.60;;;10.00;;
19664;SDS011;9980;51.020;7.772;2022-12-07T08:24:03;12.60;;;9.70;;
19664;SDS011;9980;51.020;7.772;2022-12-07T08:26:29;13.43;;;9.93;;
19664;SDS011;9980;51.020;7.772;2022-12-07T08:28:55;17.57;;;10.50;;
19664;SDS011;9980;51.020;7.772;2022-12-07T08:31:21;17.23;;;11.73;;
19664;SDS011;9980;51.020;7.772;2022-12-07T08:33:48;13.13;;;10.27;;
19664;SDS011;9980;51.020;7.772;2022-12-07T08:36:14;11.70;;;10.00;;
19664;SDS011;9980;51.020;7.772;2022-12-07T08:38:41;20.47;;;13.50;;
19664;SDS011;9980;51.020;7.772;2022-12-07T08:41:21;15.87;;;12.73;;
19664;SDS011;9980;51.020;7.772;2022-12-07T08:43:47;19.80;;;13.67;;
19664;SDS011;9980;51.020;7.772;2022-12-07T08:46:21;20.03;;;14.93;;
19664;SDS011;9980;51.020;7.772;2022-12-07T08:49:01;18.20;;;13.80;;
19664;SDS011;9980;51.020;7.772;2022-12-07T08:51:33;15.63;;;13.17;;
19664;SDS011;9980;51.020;7.772;2022-12-07T08:54:01;22.40;;;14.53;;
19664;SDS011;9980;51.020;7.772;2022-12-07T08:56:32;16.20;;;12.87;;
19664;SDS011;9980;51.020;7.772;2022-12-07T08:58:59;23.07;;;14.90;;
19664;SDS011;9980;51.020;7.772;2022-12-07T09:01:25;19.03;;;14.17;;
19664;SDS011;9980;51.020;7.772;2022-12-07T09:03:52;18.40;;;13.33;;
19664;SDS011;9980;51.020;7.772;2022-12-07T09:06:18;15.20;;;12.13;;
19664;SDS011;9980;51.020;7.772;2022-12-07T09:08:46;18.20;;;13.67;;
19664;SDS011;9980;51.020;7.772;2022-12-07T09:11:16;18.93;;;12.70;;
19664;SDS011;9980;51.020;7.772;2022-12-07T09:13:43;23.27;;;13.20;;
19664;SDS011;9980;51.020;7.772;2022-12-07T09:16:09;14.30;;;12.17;;
19664;SDS011;9980;51.020;7.772;2022-12-07T09:18:35;14.10;;;12.30;;
19664;SDS011;9980;51.020;7.772;2022-12-07T09:21:04;14.70;;;11.17;;
19664;SDS011;9980;51.020;7.772;2022-12-07T09:23:45;12.63;;;10.37;;
19664;SDS011;9980;51.020;7.772;2022-12-07T09:26:11;14.30;;;11.53;;
19664;SDS011;9980;51.020;7.772;2022-12-07T09:28:37;11.80;;;9.57;;
19664;SDS011;9980;51.020;7.772;2022-12-07T09:31:04;12.93;;;9.67;;
19664;SDS011;9980;51.020;7.772;2022-12-07T09:33:56;11.10;;;9.93;;
19664;SDS011;9980;51.020;7.772;2022-12-07T09:36:25;10.10;;;8.37;;
19664;SDS011;9980;51.020;7.772;2022-12-07T09:38:53;12.73;;;10.53;;
19664;SDS011;9980;51.020;7.772;2022-12-07T09:41:20;13.20;;;10.97;;
19664;SDS011;9980;51.020;7.772;2022-12-07T09:43:49;13.40;;;9.60;;
19664;SDS011;9980;51.020;7.772;2022-12-07T09:46:17;15.33;;;9.70;;
19664;SDS011;9980;51.020;7.772;2022-12-07T09:48:46;15.90;;;10.30;;
19664;SDS011;9980;51.020;7.772;2022-12-07T09:51:22;17.40;;;12.43;;
19664;SDS011;9980;51.020;7.772;2022-12-07T09:53:51;21.33;;;19.10;;
19664;SDS011;9980;51.020;7.772;2022-12-07T09:56:20;15.30;;;12.00;;
19664;SDS011;9980;51.020;7.772;2022-12-07T09:58:49;15.57;;;12.03;;
19664;SDS011;9980;51.020;7.772;2022-12-07T10:01:27;13.83;;;11.33;;
19664;SDS011;9980;51.020;7.772;2022-12-07T10:04:11;13.23;;;10.80;;
19664;SDS011;9980;51.020;7.772;2022-12-07T10:06:42;22.53;;;10.83;;
19664;SDS011;9980;51.020;7.772;2022-12-07T10:09:12;18.53;;;10.97;;
19664;SDS011;9980;51.020;7.772;2022-12-07T10:12:00;16.50;;;12.40;;
19664;SDS011;9980;51.020;7.772;2022-12-07T10:14:37;14.03;;;11.47;;
19664;SDS011;9980;51.020;7.772;2022-12-07T10:17:36;13.63;;;10.47;;
19664;SDS011;9980;51.020;7.772;2022-12-07T10:22:57;22.00;;;14.87;;
19664;SDS011;9980;51.020;7.772;2022-12-07T10:25:28;18.67;;;14.43;;
19664;SDS011;9980;51.020;7.772;2022-12-07T10:27:59;18.50;;;13.70;;
19664;SDS011;9980;51.020;7.772;2022-12-07T10:30:54;16.03;;;11.33;;
19664;SDS011;9980;51.020;7.772;2022-12-07T10:33:34;19.10;;;13.23;;
19664;SDS011;9980;51.020;7.772;2022-12-07T10:36:24;20.87;;;13.40;;
19664;SDS011;9980;51.020;7.772;2022-12-07T10:44:32;13.90;;;11.63;;
19664;SDS011;9980;51.020;7.772;2022-12-07T10:47:01;16.53;;;12.63;;
19664;SDS011;9980;51.020;7.772;2022-12-07T10:50:02;16.70;;;12.10;;
19664;SDS011;9980;51.020;7.772;2022-12-07T10:53:44;14.57;;;11.80;;
19664;SDS011;9980;51.020;7.772;2022-12-07T10:56:29;17.60;;;12.37;;
19664;SDS011;9980;51.020;7.772;2022-12-07T10:59:31;14.33;;;11.23;;
19664;SDS011;9980;51.020;7.772;2022-12-07T11:11:09;16.53;;;11.50;;
19664;SDS011;9980;51.020;7.772;2022-12-07T11:19:39;24.07;;;17.87;;
19664;SDS011;9980;51.020;7.772;2022-12-07T11:22:51;16.67;;;11.80;;
19664;SDS011;9980;51.020;7.772;2022-12-07T11:37:16;8.97;;;7.53;;
19664;SDS011;9980;51.020;7.772;2022-12-07T11:43:05;7.63;;;6.93;;
19664;SDS011;9980;51.020;7.772;2022-12-07T11:45:58;8.00;;;7.20;;
19664;SDS011;9980;51.020;7.772;2022-12-07T11:51:26;9.90;;;7.57;;
19664;SDS011;9980;51.020;7.772;2022-12-07T11:54:01;9.63;;;7.47;;
19664;SDS011;9980;51.020;7.772;2022-12-07T11:56:37;10.50;;;8.43;;
19664;SDS011;9980;51.020;7.772;2022-12-07T12:01:57;10.03;;;8.37;;
19664;SDS011;9980;51.020;7.772;2022-12-07T12:07:43;9.40;;;8.27;;
19664;SDS011;9980;51.020;7.772;2022-12-07T12:10:40;15.20;;;9.23;;
19664;SDS011;9980;51.020;7.772;2022-12-07T12:20:00;9.50;;;8.53;;
19664;SDS011;9980;51.020;7.772;2022-12-07T12:23:13;10.80;;;9.13;;
19664;SDS011;9980;51.020;7.772;2022-12-07T12:26:05;9.63;;;8.13;;
19664;SDS011;9980;51.020;7.772;2022-12-07T12:28:41;12.87;;;8.53;;
19664;SDS011;9980;51.020;7.772;2022-12-07T12:33:54;9.33;;;8.20;;
19664;SDS011;9980;51.020;7.772;2022-12-07T12:39:12;11.93;;;8.60;;
19664;SDS011;9980;51.020;7.772;2022-12-07T12:57:34;16.87;;;9.27;;
19664;SDS011;9980;51.020;7.772;2022-12-07T13:00:36;10.57;;;8.67;;
19664;SDS011;9980;51.020;7.772;2022-12-07T13:02:56;10.63;;;8.53;;
19664;SDS011;9980;51.020;7.772;2022-12-07T13:05:25;10.27;;;8.30;;
19664;SDS011;9980;51.020;7.772;2022-12-07T13:10:45;13.30;;;8.63;;
19664;SDS011;9980;51.020;7.772;2022-12-07T13:18:40;12.17;;;8.17;;
19664;SDS011;9980;51.020;7.772;2022-12-07T13:31:50;11.40;;;7.80;;
19664;SDS011;9980;51.020;7.772;2022-12-07T13:34:33;8.43;;;7.53;;
19664;SDS011;9980;51.020;7.772;2022-12-07T13:37:21;12.20;;;8.67;;
19664;SDS011;9980;51.020;7.772;2022-12-07T13:40:22;8.57;;;7.67;;
19664;SDS011;9980;51.020;7.772;2022-12-07T13:42:56;12.07;;;9.03;;
19664;SDS011;9980;51.020;7.772;2022-12-07T13:48:19;7.40;;;6.67;;
19664;SDS011;9980;51.020;7.772;2022-12-07T13:50:58;10.97;;;7.27;;
19664;SDS011;9980;51.020;7.772;2022-12-07T13:53:27;7.37;;;6.60;;
19664;SDS011;9980;51.020;7.772;2022-12-07T13:55:56;6.37;;;5.77;;
19664;SDS011;9980;51.020;7.772;2022-12-07T13:58:25;5.93;;;5.30;;
19664;SDS011;9980;51.020;7.772;2022-12-07T14:00:57;5.43;;;4.93;;
19664;SDS011;9980;51.020;7.772;2022-12-07T14:03:26;8.60;;;5.60;;
19664;SDS011;9980;51.020;7.772;2022-12-07T14:06:06;5.97;;;5.37;;
19664;SDS011;9980;51.020;7.772;2022-12-07T14:08:50;5.77;;;5.20;;
19664;SDS011;9980;51.020;7.772;2022-12-07T14:11:43;10.17;;;6.00;;
19664;SDS011;9980;51.020;7.772;2022-12-07T14:14:14;8.83;;;6.03;;
19664;SDS011;9980;51.020;7.772;2022-12-07T14:16:59;7.83;;;6.37;;
19664;SDS011;9980;51.020;7.772;2022-12-07T14:22:27;8.33;;;6.30;;
19664;SDS011;9980;51.020;7.772;2022-12-07T14:25:01;6.50;;;5.83;;
19664;SDS011;9980;51.020;7.772;2022-12-07T14:27:59;13.27;;;7.23;;
19664;SDS011;9980;51.020;7.772;2022-12-07T14:30:27;8.43;;;7.63;;
19664;SDS011;9980;51.020;7.772;2022-12-07T14:33:00;8.27;;;7.47;;
19664;SDS011;9980;51.020;7.772;2022-12-07T14:35:30;10.23;;;6.83;;
19664;SDS011;9980;51.020;7.772;2022-12-07T14:37:57;7.97;;;7.20;;
19664;SDS011;9980;51.020;7.772;2022-12-07T14:40:25;10.63;;;6.97;;
19664;SDS011;9980;51.020;7.772;2022-12-07T14:42:58;12.03;;;7.10;;
19664;SDS011;9980;51.020;7.772;2022-12-07T14:45:37;7.73;;;6.97;;
19664;SDS011;9980;51.020;7.772;2022-12-07T14:48:05;11.90;;;7.10;;
19664;SDS011;9980;51.020;7.772;2022-12-07T14:50:56;12.23;;;6.90;;
19664;SDS011;9980;51.020;7.772;2022-12-07T14:53:44;9.70;;;7.17;;
19664;SDS011;9980;51.020;7.772;2022-12-07T14:56:23;7.50;;;6.80;;
19664;SDS011;9980;51.020;7.772;2022-12-07T14:58:50;12.70;;;7.53;;
19664;SDS011;9980;51.020;7.772;2022-12-07T15:01:16;11.03;;;7.43;;
19664;SDS011;9980;51.020;7.772;2022-12-07T15:03:43;10.13;;;7.87;;
19664;SDS011;9980;51.020;7.772;2022-12-07T15:06:10;7.83;;;7.10;;
19664;SDS011;9980;51.020;7.772;2022-12-07T15:08:41;10.10;;;7.80;;
19664;SDS011;9980;51.020;7.772;2022-12-07T15:11:11;8.03;;;6.90;;
19664;SDS011;9980;51.020;7.772;2022-12-07T15:13:42;11.83;;;8.87;;
19664;SDS011;9980;51.020;7.772;2022-12-07T15:16:28;10.47;;;8.33;;
19664;SDS011;9980;51.020;7.772;2022-12-07T15:19:15;10.93;;;7.10;;
19664;SDS011;9980;51.020;7.772;2022-12-07T15:21:53;15.37;;;8.67;;
19664;SDS011;9980;51.020;7.772;2022-12-07T15:24:20;14.13;;;9.30;;
19664;SDS011;9980;51.020;7.772;2022-12-07T15:26:47;8.33;;;7.27;;
19664;SDS011;9980;51.020;7.772;2022-12-07T15:29:13;10.53;;;7.60;;
19664;SDS011;9980;51.020;7.772;2022-12-07T15:31:48;8.97;;;7.40;;
19664;SDS011;9980;51.020;7.772;2022-12-07T15:34:23;8.27;;;7.57;;
19664;SDS011;9980;51.020;7.772;2022-12-07T15:36:52;9.43;;;8.43;;
19664;SDS011;9980;51.020;7.772;2022-12-07T15:39:18;9.40;;;6.57;;
19664;SDS011;9980;51.020;7.772;2022-12-07T15:41:44;10.40;;;8.33;;
19664;SDS011;9980;51.020;7.772;2022-12-07T15:44:14;11.47;;;8.57;;
19664;SDS011;9980;51.020;7.772;2022-12-07T15:46:59;12.53;;;8.27;;
19664;SDS011;9980;51.020;7.772;2022-12-07T15:49:26;9.70;;;7.37;;
19664;SDS011;9980;51.020;7.772;2022-12-07T15:51:53;12.37;;;9.50;;
19664;SDS011;9980;51.020;7.772;2022-12-07T15:54:21;13.03;;;9.90;;
19664;SDS011;9980;51.020;7.772;2022-12-07T15:56:50;17.40;;;10.30;;
19664;SDS011;9980;51.020;7.772;2022-12-07T15:59:17;18.53;;;12.90;;
19664;SDS011;9980;51.020;7.772;2022-12-07T16:01:43;20.33;;;11.53;;
19664;SDS011;9980;51.020;7.772;2022-12-07T16:04:10;11.20;;;9.20;;
19664;SDS011;9980;51.020;7.772;2022-12-07T16:06:37;14.03;;;10.03;;
19664;SDS011;9980;51.020;7.772;2022-12-07T16:09:04;20.37;;;13.30;;
19664;SDS011;9980;51.020;7.772;2022-12-07T16:11:31;18.07;;;12.13;;
19664;SDS011;9980;51.020;7.772;2022-12-07T16:13:58;19.87;;;13.97;;
19664;SDS011;9980;51.020;7.772;2022-12-07T16:16:24;19.73;;;12.90;;
19664;SDS011;9980;51.020;7.772;2022-12-07T16:18:51;19.43;;;13.17;;
19664;SDS011;9980;51.020;7.772;2022-12-07T16:21:18;15.97;;;12.60;;
19664;SDS011;9980;51.020;7.772;2022-12-07T16:23:50;21.80;;;14.40;;
19664;SDS011;9980;51.020;7.772;2022-12-07T16:26:18;16.83;;;13.23;;
19664;SDS011;9980;51.020;7.772;2022-12-07T16:28:50;14.80;;;10.70;;
19664;SDS011;9980;51.020;7.772;2022-12-07T16:31:19;15.73;;;10.80;;
19664;SDS011;9980;51.020;7.772;2022-12-07T16:33:49;17.40;;;11.17;;
19664;SDS011;9980;51.020;7.772;2022-12-07T16:36:20;15.50;;;12.63;;
19664;SDS011;9980;51.020;7.772;2022-12-07T16:39:08;16.83;;;10.07;;
19664;SDS011;9980;51.020;7.772;2022-12-07T16:41:34;19.57;;;14.57;;
19664;SDS011;9980;51.020;7.772;2022-12-07T16:44:02;17.50;;;14.90;;
19664;SDS011;9980;51.020;7.772;2022-12-07T16:46:32;24.73;;;14.07;;
19664;SDS011;9980;51.020;7.772;2022-12-07T16:48:59;19.60;;;13.83;;
19664;SDS011;9980;51.020;7.772;2022-12-07T16:51:26;18.90;;;15.30;;
19664;SDS011;9980;51.020;7.772;2022-12-07T16:53:52;22.43;;;16.03;;
19664;SDS011;9980;51.020;7.772;2022-12-07T16:56:19;23.37;;;17.37;;
19664;SDS011;9980;51.020;7.772;2022-12-07T16:58:45;21.57;;;15.40;;
19664;SDS011;9980;51.020;7.772;2022-12-07T17:01:18;19.57;;;14.20;;
19664;SDS011;9980;51.020;7.772;2022-12-07T17:03:48;16.87;;;13.93;;
19664;SDS011;9980;51.020;7.772;2022-12-07T17:06:16;17.53;;;14.23;;
19664;SDS011;9980;51.020;7.772;2022-12-07T17:08:48;19.60;;;15.43;;
19664;SDS011;9980;51.020;7.772;2022-12-07T17:11:17;20.90;;;14.77;;
19664;SDS011;9980;51.020;7.772;2022-12-07T17:13:46;17.30;;;14.73;;
19664;SDS011;9980;51.020;7.772;2022-12-07T17:16:31;20.47;;;14.87;;
19664;SDS011;9980;51.020;7.772;2022-12-07T17:18:59;19.03;;;15.33;;
19664;SDS011;9980;51.020;7.772;2022-12-07T17:21:25;20.27;;;15.73;;
19664;SDS011;9980;51.020;7.772;2022-12-07T17:23:51;22.40;;;15.43;;
19664;SDS011;9980;51.020;7.772;2022-12-07T17:26:22;25.53;;;14.03;;
19664;SDS011;9980;51.020;7.772;2022-12-07T17:28:53;19.83;;;14.47;;